createdAt,value
2023-03-07T00:00:49.744Z,36.26
2023-03-07T00:03:21.321Z,36.31
2023-03-07T00:05:51.702Z,36.19
2023-03-07T00:08:22.522Z,36.43
2023-03-07T00:10:54.907Z,36.39
2023-03-07T00:13:26.156Z,36.38
2023-03-07T00:15:56.591Z,36.34
2023-03-07T00:18:26.948Z,36.35
2023-03-07T00:21:01.559Z,36.48
2023-03-07T00:23:32.256Z,36.31
2023-03-07T00:26:08.150Z,36.31
2023-03-07T00:28:38.449Z,36.34
2023-03-07T00:31:11.643Z,36.09
2023-03-07T00:33:42.311Z,36.15
2023-03-07T00:36:17.127Z,36.42
2023-03-07T00:38:47.963Z,36.45
2023-03-07T00:41:22.820Z,36.36
2023-03-07T00:43:53.952Z,36.37
2023-03-07T00:46:26.483Z,36.38
2023-03-07T00:48:57.397Z,36.49
2023-03-07T00:51:28.232Z,36.60
2023-03-07T00:53:58.992Z,36.61
2023-03-07T00:56:31.122Z,36.62
2023-03-07T00:59:01.603Z,36.69
2023-03-07T01:01:32.289Z,36.72
2023-03-07T01:04:02.758Z,36.60
2023-03-07T01:06:36.439Z,36.54
2023-03-07T01:09:09.292Z,36.98
2023-03-07T01:11:41.580Z,36.61
2023-03-07T01:14:13.762Z,36.59
2023-03-07T01:16:45.051Z,36.71
2023-03-07T01:19:15.615Z,36.68
2023-03-07T01:21:46.719Z,36.83
2023-03-07T01:24:19.122Z,36.74
2023-03-07T01:26:50.626Z,36.83
2023-03-07T01:29:20.652Z,36.70
2023-03-07T01:31:50.795Z,36.98
2023-03-07T01:34:20.462Z,36.90
2023-03-07T01:36:50.947Z,36.95
2023-03-07T01:39:21.133Z,37.08
2023-03-07T01:41:53.090Z,36.89
2023-03-07T01:44:26.908Z,36.61
2023-03-07T01:46:58.650Z,36.83
2023-03-07T01:49:34.005Z,37.10
2023-03-07T01:52:10.315Z,36.84
2023-03-07T01:54:49.315Z,37.17
2023-03-07T01:57:28.387Z,37.16
2023-03-07T02:00:02.337Z,36.87
2023-03-07T02:02:32.570Z,36.73
2023-03-07T02:05:12.477Z,37.00
2023-03-07T02:07:47.269Z,36.76
2023-03-07T02:10:22.104Z,37.23
2023-03-07T02:12:56.112Z,37.06
2023-03-07T02:15:26.914Z,37.13
2023-03-07T02:18:00.051Z,37.04
2023-03-07T02:20:42.415Z,37.01
2023-03-07T02:23:19.487Z,37.00
2023-03-07T02:26:01.906Z,37.24
2023-03-07T02:28:34.452Z,37.16
2023-03-07T02:31:08.105Z,37.17
2023-03-07T02:33:38.719Z,37.04
2023-03-07T02:36:13.242Z,37.43
2023-03-07T02:38:47.450Z,37.35
2023-03-07T02:41:21.726Z,37.26
2023-03-07T02:43:53.151Z,37.36
2023-03-07T02:46:23.698Z,37.36
2023-03-07T02:48:54.243Z,37.08
2023-03-07T02:51:24.760Z,37.45
2023-03-07T02:53:54.737Z,36.96
2023-03-07T02:56:25.361Z,37.33
2023-03-07T02:58:57.800Z,37.29
2023-03-07T03:01:28.095Z,37.16
2023-03-07T03:03:58.445Z,37.56
2023-03-07T03:06:28.483Z,37.60
2023-03-07T03:08:58.994Z,37.34
2023-03-07T03:11:29.354Z,37.21
2023-03-07T03:14:01.740Z,37.74
2023-03-07T03:16:32.492Z,37.84
2023-03-07T03:19:02.509Z,37.55
2023-03-07T03:21:32.566Z,37.58
2023-03-07T03:24:08.765Z,37.44
2023-03-07T03:26:40.520Z,37.65
2023-03-07T03:29:13.058Z,37.78
2023-03-07T03:31:43.197Z,37.52
2023-03-07T03:34:13.593Z,37.67
2023-03-07T03:36:43.549Z,37.44
2023-03-07T03:39:14.890Z,37.88
2023-03-07T03:41:45.358Z,37.53
2023-03-07T03:44:17.786Z,37.31
2023-03-07T03:46:49.486Z,37.47
2023-03-07T03:49:20.150Z,37.39
2023-03-07T03:51:50.564Z,37.56
2023-03-07T03:54:21.402Z,37.86
2023-03-07T03:56:51.847Z,37.33
2023-03-07T03:59:24.687Z,37.92
2023-03-07T04:01:55.572Z,37.69
2023-03-07T04:04:26.403Z,37.58
2023-03-07T04:06:56.409Z,37.50
2023-03-07T04:09:26.562Z,37.53
2023-03-07T04:11:57.078Z,38.01
2023-03-07T04:14:29.651Z,37.57
2023-03-07T04:17:00.154Z,37.90
2023-03-07T04:19:30.156Z,37.47
2023-03-07T04:22:00.697Z,37.57
2023-03-07T04:24:31.448Z,37.67
2023-03-07T04:27:01.855Z,37.78
2023-03-07T04:29:33.876Z,37.71
2023-03-07T04:32:04.469Z,37.84
2023-03-07T04:34:34.290Z,37.69
2023-03-07T04:37:04.788Z,37.70
2023-03-07T04:39:35.398Z,38.03
2023-03-07T04:42:05.448Z,37.77
2023-03-07T04:44:36.823Z,37.63
2023-03-07T04:47:07.157Z,37.62
2023-03-07T04:49:37.672Z,38.09
2023-03-07T04:52:09.136Z,37.56
2023-03-07T04:54:41.258Z,37.60
2023-03-07T04:57:11.894Z,37.91
2023-03-07T04:59:44.296Z,37.90
2023-03-07T05:02:16.438Z,37.72
2023-03-07T05:04:47.036Z,37.90
2023-03-07T05:07:17.590Z,38.16
2023-03-07T05:09:48.299Z,38.03
2023-03-07T05:12:18.233Z,37.97
2023-03-07T05:14:50.299Z,38.11
2023-03-07T05:17:21.998Z,38.07
2023-03-07T05:19:52.443Z,37.90
2023-03-07T05:22:22.938Z,37.97
2023-03-07T05:24:53.442Z,37.99
2023-03-07T05:27:24.611Z,37.95
2023-03-07T05:29:56.752Z,38.32
2023-03-07T05:32:27.334Z,38.33
2023-03-07T05:34:57.816Z,38.01
2023-03-07T05:37:28.446Z,38.10
2023-03-07T05:39:59.337Z,37.90
2023-03-07T05:42:29.792Z,38.14
2023-03-07T05:45:01.779Z,38.00
2023-03-07T05:47:32.464Z,38.34
2023-03-07T05:50:02.936Z,37.87
2023-03-07T05:52:33.578Z,38.42
2023-03-07T05:55:05.129Z,38.24
2023-03-07T05:57:36.514Z,38.26
2023-03-07T06:00:11.710Z,38.24
2023-03-07T06:02:42.296Z,38.17
2023-03-07T06:05:14.590Z,38.26
2023-03-07T06:07:45.137Z,38.17
2023-03-07T06:10:16.297Z,38.26
2023-03-07T06:12:46.893Z,38.22
2023-03-07T06:15:19.231Z,38.11
2023-03-07T06:17:49.924Z,38.02
2023-03-07T06:20:21.239Z,38.37
2023-03-07T06:22:51.906Z,37.93
2023-03-07T06:25:23.086Z,38.23
2023-03-07T06:27:53.630Z,38.37
2023-03-07T06:30:29.500Z,38.28
2023-03-07T06:33:00.055Z,38.45
2023-03-07T06:35:30.680Z,38.26
2023-03-07T06:38:01.397Z,38.22
2023-03-07T06:40:31.737Z,38.54
2023-03-07T06:43:02.470Z,38.48
2023-03-07T06:45:34.780Z,38.41
2023-03-07T06:48:05.273Z,38.36
2023-03-07T06:50:35.947Z,37.96
2023-03-07T06:53:05.931Z,38.29
2023-03-07T06:55:37.463Z,38.45
2023-03-07T06:58:08.111Z,38.61
2023-03-07T07:00:40.782Z,38.41
2023-03-07T07:03:14.743Z,38.17
2023-03-07T07:05:44.713Z,38.47
2023-03-07T07:08:16.200Z,38.51
2023-03-07T07:10:46.652Z,38.51
2023-03-07T07:13:17.252Z,38.59
2023-03-07T07:15:48.708Z,38.45
2023-03-07T07:18:18.746Z,38.43
2023-03-07T07:20:56.989Z,38.54
2023-03-07T07:23:27.583Z,38.50
2023-03-07T07:25:58.222Z,38.20
2023-03-07T07:28:28.892Z,38.76
2023-03-07T07:31:02.032Z,38.43
2023-03-07T07:33:32.587Z,38.38
2023-03-07T07:36:03.538Z,38.72
2023-03-07T07:38:34.094Z,38.34
2023-03-07T07:41:04.707Z,38.56
2023-03-07T07:43:35.012Z,38.62
2023-03-07T07:46:09.159Z,38.38
2023-03-07T07:48:39.744Z,38.57
2023-03-07T07:51:10.254Z,38.41
2023-03-07T07:53:41.208Z,38.33
2023-03-07T07:56:11.813Z,38.71
2023-03-07T07:58:42.337Z,38.54
2023-03-07T08:01:20.866Z,38.37
2023-03-07T08:03:51.997Z,38.67
2023-03-07T08:06:24.472Z,38.56
2023-03-07T08:08:54.941Z,38.48
2023-03-07T08:11:26.907Z,38.48
2023-03-07T08:13:57.297Z,38.51
2023-03-07T08:16:29.907Z,38.70
2023-03-07T08:19:01.267Z,38.60
2023-03-07T08:21:32.159Z,38.28
2023-03-07T08:24:03.356Z,38.29
2023-03-07T08:26:33.913Z,38.39
2023-03-07T08:29:04.042Z,38.23
2023-03-07T08:31:36.487Z,38.21
2023-03-07T08:34:07.264Z,38.15
2023-03-07T08:36:37.888Z,38.32
2023-03-07T08:39:08.575Z,37.99
2023-03-07T08:41:39.094Z,38.27
2023-03-07T08:44:09.527Z,37.97
2023-03-07T08:46:42.093Z,38.17
2023-03-07T08:49:12.620Z,38.15
2023-03-07T08:51:42.946Z,38.03
2023-03-07T08:54:13.822Z,37.85
2023-03-07T08:56:43.938Z,37.96
2023-03-07T08:59:14.289Z,37.82
2023-03-07T09:01:46.276Z,37.82
2023-03-07T09:04:16.354Z,37.62
2023-03-07T09:06:46.944Z,37.69
2023-03-07T09:09:16.930Z,37.68
2023-03-07T09:11:47.444Z,37.58
2023-03-07T09:14:17.955Z,37.53
2023-03-07T09:16:50.598Z,37.53
2023-03-07T09:19:21.183Z,37.52
2023-03-07T09:21:52.035Z,37.62
2023-03-07T09:24:22.773Z,37.57
2023-03-07T09:26:53.433Z,37.32
2023-03-07T09:29:23.932Z,37.51
2023-03-07T09:31:56.553Z,37.43
2023-03-07T09:34:27.076Z,37.39
2023-03-07T09:36:57.041Z,37.49
2023-03-07T09:39:27.537Z,37.35
2023-03-07T09:42:13.875Z,37.54
2023-03-07T09:45:06.541Z,37.30
2023-03-07T09:48:07.804Z,37.39
2023-03-07T09:50:49.051Z,37.31
2023-03-07T09:53:31.868Z,37.12
2023-03-07T09:56:05.947Z,37.26
2023-03-07T09:58:40.658Z,37.47
2023-03-07T10:01:14.112Z,37.27
2023-03-07T10:03:58.668Z,37.19
2023-03-07T10:06:36.431Z,37.25
2023-03-07T10:09:10.005Z,37.25
2023-03-07T10:12:23.694Z,37.07
2023-03-07T10:15:31.243Z,37.23
2023-03-07T10:18:29.265Z,36.97
2023-03-07T10:21:16.393Z,37.01
2023-03-07T10:24:21.035Z,36.94
2023-03-07T10:27:00.343Z,36.89
2023-03-07T10:29:39.759Z,36.85
2023-03-07T10:32:28.816Z,36.74
2023-03-07T10:35:07.305Z,36.97
2023-03-07T10:37:51.570Z,36.89
2023-03-07T10:40:28.750Z,36.80
2023-03-07T10:46:12.764Z,36.53
2023-03-07T10:48:53.536Z,36.66
2023-03-07T10:51:54.037Z,36.52
2023-03-07T10:54:32.048Z,36.57
2023-03-07T10:57:13.163Z,36.40
2023-03-07T10:59:48.475Z,36.39
2023-03-07T11:02:41.336Z,36.24
2023-03-07T11:05:33.254Z,36.28
2023-03-07T11:08:22.597Z,36.12
2023-03-07T11:10:54.566Z,36.05
2023-03-07T11:13:26.562Z,35.90
2023-03-07T11:16:19.451Z,35.89
2023-03-07T11:18:50.660Z,35.94
2023-03-07T11:21:34.316Z,35.68
2023-03-07T11:24:07.247Z,35.89
2023-03-07T11:26:43.656Z,35.93
2023-03-07T11:29:17.210Z,35.90
2023-03-07T11:32:01.968Z,35.78
2023-03-07T11:34:46.542Z,35.81
2023-03-07T11:37:31.949Z,35.58
2023-03-07T11:40:24.518Z,35.53
2023-03-07T11:43:15.801Z,35.70
2023-03-07T11:45:58.958Z,35.55
2023-03-07T11:49:03.281Z,35.60
2023-03-07T11:51:58.265Z,35.52
2023-03-07T11:54:41.073Z,35.51
2023-03-07T11:57:26.727Z,35.40
2023-03-07T12:00:22.665Z,35.39
2023-03-07T12:03:55.485Z,35.46
2023-03-07T12:06:49.603Z,35.41
2023-03-07T12:09:40.308Z,35.07
2023-03-07T12:12:43.203Z,35.48
2023-03-07T12:15:40.311Z,35.32
2023-03-07T12:18:48.028Z,35.19
2023-03-07T12:21:42.448Z,35.35
2023-03-07T12:24:23.998Z,35.46
2023-03-07T12:27:02.886Z,35.41
2023-03-07T12:29:41.070Z,35.66
2023-03-07T12:32:20.693Z,35.57
2023-03-07T12:35:01.452Z,35.53
2023-03-07T12:37:39.851Z,35.54
2023-03-07T12:40:22.738Z,35.57
2023-03-07T12:43:04.454Z,35.45
2023-03-07T12:45:46.161Z,35.45
2023-03-07T12:48:29.312Z,35.48
2023-03-07T12:51:11.567Z,35.59
2023-03-07T12:53:52.463Z,35.50
2023-03-07T12:56:30.945Z,35.68
2023-03-07T12:59:13.249Z,35.69
2023-03-07T13:01:50.693Z,35.85
2023-03-07T13:04:33.387Z,35.45
2023-03-07T13:07:11.839Z,35.78
2023-03-07T13:09:45.401Z,35.94
2023-03-07T13:12:37.099Z,35.64
2023-03-07T13:15:09.534Z,35.61
2023-03-07T13:18:02.654Z,35.72
2023-03-07T13:21:15.403Z,35.66
2023-03-07T13:23:46.126Z,35.75
2023-03-07T13:26:27.408Z,35.52
2023-03-07T13:28:58.047Z,35.85
2023-03-07T13:31:47.509Z,35.57
2023-03-07T13:34:51.957Z,35.65
2023-03-07T13:37:59.310Z,35.84
2023-03-07T13:40:59.501Z,35.78
2023-03-07T13:44:04.656Z,35.69
2023-03-07T13:47:01.796Z,35.60
2023-03-07T13:49:47.255Z,35.57
2023-03-07T13:52:56.215Z,35.52
2023-03-07T13:55:35.225Z,35.62
2023-03-07T13:58:26.655Z,35.56
2023-03-07T14:01:02.015Z,35.63
2023-03-07T14:03:51.369Z,35.58
2023-03-07T14:06:30.002Z,35.62
2023-03-07T14:09:03.130Z,35.25
2023-03-07T14:11:49.172Z,35.55
2023-03-07T14:14:48.881Z,35.52
2023-03-07T14:17:55.223Z,35.60
2023-03-07T14:20:45.231Z,35.75
2023-03-07T14:23:37.852Z,35.64
2023-03-07T14:26:19.198Z,35.59
2023-03-07T14:29:02.323Z,35.55
2023-03-07T14:31:40.796Z,35.53
2023-03-07T14:34:28.248Z,35.59
2023-03-07T14:37:04.590Z,35.53
2023-03-07T14:39:56.837Z,35.94
2023-03-07T14:42:40.927Z,35.72
2023-03-07T14:45:38.320Z,35.69
2023-03-07T14:48:52.025Z,35.64
2023-03-07T14:51:28.198Z,35.60
2023-03-07T14:53:59.791Z,35.56
2023-03-07T14:56:34.969Z,35.78
2023-03-07T14:59:07.668Z,35.73
2023-03-07T15:01:43.771Z,35.70
2023-03-07T15:04:28.557Z,35.84
2023-03-07T15:07:01.706Z,35.79
2023-03-07T15:09:33.364Z,36.00
2023-03-07T15:12:09.260Z,35.63
2023-03-07T15:14:48.758Z,35.94
2023-03-07T15:17:28.051Z,35.72
2023-03-07T15:20:03.781Z,35.77
2023-03-07T15:22:40.626Z,35.83
2023-03-07T15:25:24.609Z,35.41
2023-03-07T15:28:04.784Z,36.08
2023-03-07T15:30:38.264Z,35.86
2023-03-07T15:33:18.168Z,36.04
2023-03-07T15:36:08.471Z,35.73
2023-03-07T15:38:39.013Z,35.96
2023-03-07T15:41:36.325Z,36.10
2023-03-07T15:44:17.098Z,35.88
2023-03-07T15:46:51.324Z,35.90
2023-03-07T15:49:29.079Z,35.91
2023-03-07T15:52:02.672Z,35.85
2023-03-07T15:54:41.806Z,35.89
2023-03-07T15:57:24.784Z,35.98
2023-03-07T16:00:00.632Z,35.75
2023-03-07T16:02:47.647Z,36.07
2023-03-07T16:05:41.340Z,35.90
2023-03-07T16:08:17.042Z,36.03
2023-03-07T16:10:54.255Z,36.07
2023-03-07T16:13:31.048Z,35.95
2023-03-07T16:16:05.053Z,35.93
2023-03-07T16:18:37.597Z,35.79
2023-03-07T16:21:14.965Z,35.71
2023-03-07T16:23:47.307Z,35.89
2023-03-07T16:26:25.806Z,36.21
2023-03-07T16:28:57.240Z,36.24
2023-03-07T16:31:28.009Z,36.22
2023-03-07T16:33:59.354Z,36.06
2023-03-07T16:36:30.819Z,36.03
2023-03-07T16:39:01.315Z,36.27
2023-03-07T16:41:31.958Z,36.42
2023-03-07T16:44:03.118Z,36.27
2023-03-07T16:46:34.222Z,36.16
2023-03-07T16:49:04.717Z,36.37
2023-03-07T16:51:37.686Z,36.32
2023-03-07T16:54:08.824Z,36.50
2023-03-07T16:56:45.916Z,36.55
2023-03-07T16:59:19.544Z,36.45
2023-03-07T17:01:52.307Z,36.58
2023-03-07T17:04:23.283Z,36.25
2023-03-07T17:07:04.272Z,36.76
2023-03-07T17:09:35.056Z,36.44
2023-03-07T17:12:06.407Z,36.47
2023-03-07T17:14:38.304Z,36.50
2023-03-07T17:17:20.115Z,36.56
2023-03-07T17:19:51.364Z,36.50
2023-03-07T17:22:24.178Z,36.81
2023-03-07T17:24:55.154Z,36.50
2023-03-07T17:27:26.354Z,36.33
2023-03-07T17:29:58.162Z,36.55
2023-03-07T17:32:29.150Z,36.83
2023-03-07T17:35:00.013Z,36.32
2023-03-07T17:37:33.327Z,36.76
2023-03-07T17:40:10.519Z,36.33
2023-03-07T17:42:42.094Z,36.52
2023-03-07T17:45:15.228Z,36.61
2023-03-07T17:47:45.430Z,36.51
2023-03-07T17:50:15.585Z,36.86
2023-03-07T17:52:48.006Z,36.54
2023-03-07T17:55:20.112Z,36.67
2023-03-07T17:57:50.944Z,36.68
2023-03-07T18:00:23.578Z,36.74
2023-03-07T18:02:55.067Z,36.70
2023-03-07T18:05:26.480Z,36.65
2023-03-07T18:07:59.371Z,36.78
2023-03-07T18:10:30.014Z,36.94
2023-03-07T18:13:00.594Z,36.86
2023-03-07T18:15:30.881Z,36.73
2023-03-07T18:18:01.827Z,36.73
2023-03-07T18:20:33.279Z,36.79
2023-03-07T18:23:05.738Z,36.83
2023-03-07T18:25:35.823Z,36.86
2023-03-07T18:28:05.854Z,36.87
2023-03-07T18:30:36.131Z,37.06
2023-03-07T18:33:06.276Z,37.11
2023-03-07T18:35:39.632Z,36.59
2023-03-07T18:38:11.716Z,36.63
2023-03-07T18:40:41.866Z,37.20
2023-03-07T18:43:12.512Z,36.67
2023-03-07T18:45:45.393Z,36.79
2023-03-07T18:48:16.690Z,36.78
2023-03-07T18:50:47.267Z,36.65
2023-03-07T18:53:19.527Z,36.68
2023-03-07T18:55:49.356Z,36.74
2023-03-07T18:58:21.810Z,36.94
2023-03-07T19:00:52.649Z,36.63
2023-03-07T19:03:22.746Z,36.97
2023-03-07T19:05:53.073Z,36.98
2023-03-07T19:08:24.639Z,36.98
2023-03-07T19:10:55.233Z,37.19
2023-03-07T19:13:25.266Z,36.90
2023-03-07T19:16:05.939Z,36.81
2023-03-07T19:18:38.303Z,37.03
2023-03-07T19:21:09.554Z,37.12
2023-03-07T19:23:42.779Z,37.10
2023-03-07T19:26:17.106Z,37.10
2023-03-07T19:28:48.858Z,37.03
2023-03-07T19:31:21.101Z,36.83
2023-03-07T19:33:53.736Z,37.23
2023-03-07T19:36:27.400Z,37.02
2023-03-07T19:39:01.575Z,36.93
2023-03-07T19:41:33.592Z,36.88
2023-03-07T19:44:06.866Z,36.90
2023-03-07T19:46:37.475Z,36.91
2023-03-07T19:49:08.636Z,37.03
2023-03-07T19:51:39.236Z,36.83
2023-03-07T19:54:12.756Z,37.29
2023-03-07T19:56:44.821Z,37.00
2023-03-07T19:59:16.118Z,37.16
2023-03-07T20:01:46.818Z,36.85
2023-03-07T20:04:19.321Z,37.19
2023-03-07T20:06:49.305Z,36.91
2023-03-07T20:09:21.873Z,37.42
2023-03-07T20:11:52.521Z,37.25
2023-03-07T20:14:23.159Z,37.06
2023-03-07T20:16:53.794Z,37.16
2023-03-07T20:19:24.530Z,37.13
2023-03-07T20:21:55.011Z,37.11
2023-03-07T20:24:27.655Z,37.26
2023-03-07T20:26:58.288Z,37.20
2023-03-07T20:29:28.986Z,37.05
2023-03-07T20:31:59.658Z,37.34
2023-03-07T20:34:30.434Z,37.15
2023-03-07T20:37:01.010Z,37.43
2023-03-07T20:39:33.121Z,37.31
2023-03-07T20:42:03.995Z,37.39
2023-03-07T20:44:34.944Z,37.38
2023-03-07T20:47:04.976Z,37.47
2023-03-07T20:49:35.681Z,37.23
2023-03-07T20:52:06.591Z,37.04
2023-03-07T20:54:38.590Z,37.15
2023-03-07T20:57:09.505Z,37.41
2023-03-07T20:59:40.130Z,37.30
2023-03-07T21:02:12.188Z,37.46
2023-03-07T21:04:42.786Z,37.22
2023-03-07T21:07:13.295Z,37.40
2023-03-07T21:09:51.161Z,37.25
2023-03-07T21:12:22.269Z,37.10
2023-03-07T21:14:52.273Z,37.31
2023-03-07T21:17:22.899Z,37.57
2023-03-07T21:19:54.221Z,37.14
2023-03-07T21:22:24.743Z,37.44
2023-03-07T21:24:57.227Z,37.53
2023-03-07T21:27:27.891Z,37.53
2023-03-07T21:29:58.492Z,37.58
2023-03-07T21:32:29.088Z,37.21
2023-03-07T21:34:59.945Z,37.42
2023-03-07T21:37:30.463Z,37.26
2023-03-07T21:40:02.625Z,37.29
2023-03-07T21:42:33.273Z,37.80
2023-03-07T21:45:03.750Z,37.64
2023-03-07T21:47:34.314Z,37.39
2023-03-07T21:50:04.847Z,37.60
2023-03-07T21:52:34.930Z,37.70
2023-03-07T21:55:08.409Z,37.75
2023-03-07T21:57:39.962Z,37.92
2023-03-07T22:00:15.800Z,37.53
2023-03-07T22:02:46.294Z,37.75
2023-03-07T22:05:16.868Z,37.97
2023-03-07T22:07:47.523Z,37.70
2023-03-07T22:10:20.466Z,37.64
2023-03-07T22:12:51.045Z,37.62
2023-03-07T22:15:21.718Z,37.58
2023-03-07T22:17:51.799Z,37.75
2023-03-07T22:20:22.661Z,38.01
2023-03-07T22:22:53.272Z,37.77
2023-03-07T22:25:25.929Z,37.52
2023-03-07T22:27:56.456Z,37.81
2023-03-07T22:30:27.077Z,37.91
2023-03-07T22:32:57.549Z,37.75
2023-03-07T22:35:28.333Z,37.58
2023-03-07T22:37:58.353Z,37.89
2023-03-07T22:40:30.992Z,37.86
2023-03-07T22:43:01.515Z,37.86
2023-03-07T22:45:32.124Z,37.93
2023-03-07T22:48:02.320Z,37.88
2023-03-07T22:50:32.947Z,38.13
2023-03-07T22:53:03.899Z,37.81
2023-03-07T22:55:40.748Z,38.05
2023-03-07T22:58:10.922Z,38.18
2023-03-07T23:00:44.549Z,37.88
2023-03-07T23:03:15.317Z,38.28
2023-03-07T23:05:50.201Z,38.30
2023-03-07T23:08:21.048Z,37.98
2023-03-07T23:10:53.071Z,38.06
2023-03-07T23:13:23.455Z,37.83
2023-03-07T23:15:53.607Z,38.20
2023-03-07T23:18:24.720Z,38.23
2023-03-07T23:20:55.244Z,38.15
2023-03-07T23:23:26.211Z,38.22
2023-03-07T23:25:58.213Z,38.16
2023-03-07T23:28:28.971Z,38.26
2023-03-07T23:30:59.748Z,38.21
2023-03-07T23:33:32.451Z,38.08
2023-03-07T23:36:03.223Z,38.39
2023-03-07T23:38:33.891Z,37.92
2023-03-07T23:41:05.486Z,38.29
2023-03-07T23:43:35.464Z,38.33
2023-03-07T23:46:06.279Z,38.24
2023-03-07T23:48:36.995Z,38.51
2023-03-07T23:51:07.789Z,38.34
2023-03-07T23:53:37.733Z,38.35
2023-03-07T23:56:12.070Z,38.45
2023-03-07T23:58:42.500Z,38.41
